Aviation Digital Data Service (ADDS)

Output produced by METARs form (2234 UTC 23 March 2019)
found at http://www.aviationweather.gov/metar/data/
 
Forecast for: VTUQ (NAKHON RATCHASIM, TH)
Text: TAF VTUQ 231700Z 2318/2418 20006KT 7000 FEW030
Forecast period: 1800 UTC 23 March 2019 to 1800 UTC 24 March 2019
Forecast type: FROM: standard forecast or significant change
Winds: from the SSW (200 degrees) at 7 MPH (6 knots; 3.1 m/s)
Visibility: 4 miles (7 km)
Ceiling: at least 12,000 feet AGL
Clouds: few clouds at 3000 feet AGL
Weather: no significant weather forecast for this period
Text: TEMPO 2403/2405 VRB15KT 6000 TSRA FEW018CB SCT025 BKN100
Forecast period: 0300 to 0500 UTC 24 March 2019
Forecast type: TEMPORARY: The following changes expected for less than half the time period
Winds: variable direction winds at 17 MPH (15 knots; 7.7 m/s)
Visibility: 4 miles (6 km)
Ceiling: 10000 feet AGL
Clouds: few clouds at 1800 feet AGL
scattered clouds at 2500 feet AGL
broken clouds at 10000 feet AGL
Weather: TSRA  (rain associated with thunderstorm(s))